Airport View

Enter AWOS ICAO identifier for current METAR.

ex. KFNL

KBIS 191152Z 10003KT 10SM CLR M26/M29 A3036 RMK AO2 SLP331 I6000 T12611289 11228 21283 56013

19 Feb 2019 12:36

Phone: 701-255-7563

Other Area AWOS: KY19 - K7L2 - KD57 - KHZE

TAF KBIS 191127Z 1912/2012 VRB03KT P6SM SKC FM191800 18008KT P6SM FEW200 FM200300 15006KT P6SM BKN030 FM200900 13005KT P6SM BKN015